sensor_id;sensor_type;location;lat;lon;timestamp;P1;durP1;ratioP1;P2;durP2;ratioP2
32780;SDS011;19136;47.032;15.502;2022-12-10T00:03:48;48.30;;;25.88;;
32780;SDS011;19136;47.032;15.502;2022-12-10T00:06:15;46.30;;;23.83;;
32780;SDS011;19136;47.032;15.502;2022-12-10T00:08:43;42.85;;;22.80;;
32780;SDS011;19136;47.032;15.502;2022-12-10T00:11:09;51.67;;;26.02;;
32780;SDS011;19136;47.032;15.502;2022-12-10T00:13:36;43.92;;;23.85;;
32780;SDS011;19136;47.032;15.502;2022-12-10T00:16:03;45.30;;;24.77;;
32780;SDS011;19136;47.032;15.502;2022-12-10T00:18:30;42.25;;;24.40;;
32780;SDS011;19136;47.032;15.502;2022-12-10T00:20:55;72.05;;;32.63;;
32780;SDS011;19136;47.032;15.502;2022-12-10T00:23:21;50.45;;;25.92;;
32780;SDS011;19136;47.032;15.502;2022-12-10T00:25:47;52.20;;;27.52;;
32780;SDS011;19136;47.032;15.502;2022-12-10T00:28:12;54.67;;;27.45;;
32780;SDS011;19136;47.032;15.502;2022-12-10T00:30:38;57.25;;;28.27;;
32780;SDS011;19136;47.032;15.502;2022-12-10T00:33:03;61.70;;;29.27;;
32780;SDS011;19136;47.032;15.502;2022-12-10T00:35:29;66.10;;;31.40;;
32780;SDS011;19136;47.032;15.502;2022-12-10T00:37:54;63.03;;;28.90;;
32780;SDS011;19136;47.032;15.502;2022-12-10T00:40:20;76.85;;;31.55;;
32780;SDS011;19136;47.032;15.502;2022-12-10T00:42:46;59.92;;;30.10;;
32780;SDS011;19136;47.032;15.502;2022-12-10T00:45:12;78.57;;;33.30;;
32780;SDS011;19136;47.032;15.502;2022-12-10T00:47:37;67.97;;;30.33;;
32780;SDS011;19136;47.032;15.502;2022-12-10T00:50:03;69.95;;;31.25;;
32780;SDS011;19136;47.032;15.502;2022-12-10T00:52:29;62.88;;;28.88;;
32780;SDS011;19136;47.032;15.502;2022-12-10T00:54:54;62.30;;;30.52;;
32780;SDS011;19136;47.032;15.502;2022-12-10T00:57:20;85.47;;;37.60;;
32780;SDS011;19136;47.032;15.502;2022-12-10T00:59:45;79.15;;;33.03;;
32780;SDS011;19136;47.032;15.502;2022-12-10T01:02:11;75.57;;;33.97;;
32780;SDS011;19136;47.032;15.502;2022-12-10T01:04:36;81.68;;;35.22;;
32780;SDS011;19136;47.032;15.502;2022-12-10T01:07:02;80.00;;;34.17;;
32780;SDS011;19136;47.032;15.502;2022-12-10T01:09:28;76.05;;;34.05;;
32780;SDS011;19136;47.032;15.502;2022-12-10T01:11:55;69.53;;;30.48;;
32780;SDS011;19136;47.032;15.502;2022-12-10T01:14:26;70.63;;;31.10;;
32780;SDS011;19136;47.032;15.502;2022-12-10T01:16:54;59.35;;;29.48;;
32780;SDS011;19136;47.032;15.502;2022-12-10T01:19:21;72.68;;;31.58;;
32780;SDS011;19136;47.032;15.502;2022-12-10T01:21:51;74.47;;;30.80;;
32780;SDS011;19136;47.032;15.502;2022-12-10T01:24:18;74.40;;;32.78;;
32780;SDS011;19136;47.032;15.502;2022-12-10T01:26:46;88.53;;;34.05;;
32780;SDS011;19136;47.032;15.502;2022-12-10T01:29:12;81.80;;;35.00;;
32780;SDS011;19136;47.032;15.502;2022-12-10T01:31:38;344.13;;;52.33;;
32780;SDS011;19136;47.032;15.502;2022-12-10T01:34:04;338.80;;;50.50;;
32780;SDS011;19136;47.032;15.502;2022-12-10T01:36:35;102.45;;;36.55;;
32780;SDS011;19136;47.032;15.502;2022-12-10T01:39:03;122.20;;;40.92;;
32780;SDS011;19136;47.032;15.502;2022-12-10T01:41:31;148.73;;;38.67;;
32780;SDS011;19136;47.032;15.502;2022-12-10T01:44:56;95.32;;;38.85;;
32780;SDS011;19136;47.032;15.502;2022-12-10T01:46:54;105.30;;;38.03;;
32780;SDS011;19136;47.032;15.502;2022-12-10T01:49:21;97.80;;;34.90;;
32780;SDS011;19136;47.032;15.502;2022-12-10T01:51:50;89.05;;;35.78;;
32780;SDS011;19136;47.032;15.502;2022-12-10T01:54:20;109.78;;;38.63;;
32780;SDS011;19136;47.032;15.502;2022-12-10T01:56:51;102.63;;;39.42;;
32780;SDS011;19136;47.032;15.502;2022-12-10T01:59:23;90.85;;;37.80;;
32780;SDS011;19136;47.032;15.502;2022-12-10T02:04:33;97.55;;;37.05;;
32780;SDS011;19136;47.032;15.502;2022-12-10T02:07:06;93.13;;;36.55;;
32780;SDS011;19136;47.032;15.502;2022-12-10T02:09:45;98.60;;;36.83;;
32780;SDS011;19136;47.032;15.502;2022-12-10T02:15:04;100.15;;;37.90;;
32780;SDS011;19136;47.032;15.502;2022-12-10T02:17:38;94.88;;;38.30;;
32780;SDS011;19136;47.032;15.502;2022-12-10T02:22:50;98.95;;;37.70;;
32780;SDS011;19136;47.032;15.502;2022-12-10T02:25:21;113.22;;;40.42;;
32780;SDS011;19136;47.032;15.502;2022-12-10T02:27:51;95.22;;;36.20;;
32780;SDS011;19136;47.032;15.502;2022-12-10T02:30:21;96.83;;;36.83;;
32780;SDS011;19136;47.032;15.502;2022-12-10T02:32:46;101.57;;;37.67;;
32780;SDS011;19136;47.032;15.502;2022-12-10T02:35:16;101.72;;;38.80;;
32780;SDS011;19136;47.032;15.502;2022-12-10T02:37:51;115.88;;;40.25;;
32780;SDS011;19136;47.032;15.502;2022-12-10T02:40:24;105.38;;;37.83;;
32780;SDS011;19136;47.032;15.502;2022-12-10T02:42:53;129.57;;;41.15;;
32780;SDS011;19136;47.032;15.502;2022-12-10T02:45:18;109.30;;;40.92;;
32780;SDS011;19136;47.032;15.502;2022-12-10T02:47:46;102.13;;;39.10;;
32780;SDS011;19136;47.032;15.502;2022-12-10T02:50:12;106.35;;;40.38;;
32780;SDS011;19136;47.032;15.502;2022-12-10T02:52:39;108.80;;;41.33;;
32780;SDS011;19136;47.032;15.502;2022-12-10T02:55:05;115.57;;;42.28;;
32780;SDS011;19136;47.032;15.502;2022-12-10T03:00:25;100.45;;;38.05;;
32780;SDS011;19136;47.032;15.502;2022-12-10T03:05:23;131.77;;;43.65;;
32780;SDS011;19136;47.032;15.502;2022-12-10T03:12:48;100.82;;;37.80;;
32780;SDS011;19136;47.032;15.502;2022-12-10T03:15:16;99.72;;;38.78;;
32780;SDS011;19136;47.032;15.502;2022-12-10T03:17:43;102.78;;;39.25;;
32780;SDS011;19136;47.032;15.502;2022-12-10T03:20:11;103.05;;;39.67;;
32780;SDS011;19136;47.032;15.502;2022-12-10T03:22:38;108.28;;;40.35;;
32780;SDS011;19136;47.032;15.502;2022-12-10T03:25:07;100.45;;;38.85;;
32780;SDS011;19136;47.032;15.502;2022-12-10T03:27:36;111.60;;;39.90;;
32780;SDS011;19136;47.032;15.502;2022-12-10T03:30:02;98.25;;;39.08;;
32780;SDS011;19136;47.032;15.502;2022-12-10T03:32:28;86.35;;;36.08;;
32780;SDS011;19136;47.032;15.502;2022-12-10T03:34:55;95.32;;;37.22;;
32780;SDS011;19136;47.032;15.502;2022-12-10T03:37:22;101.40;;;41.22;;
32780;SDS011;19136;47.032;15.502;2022-12-10T03:39:48;96.15;;;36.92;;
32780;SDS011;19136;47.032;15.502;2022-12-10T03:42:14;90.82;;;37.25;;
32780;SDS011;19136;47.032;15.502;2022-12-10T03:44:40;93.20;;;37.97;;
32780;SDS011;19136;47.032;15.502;2022-12-10T03:47:06;99.97;;;38.25;;
32780;SDS011;19136;47.032;15.502;2022-12-10T03:49:33;110.20;;;39.45;;
32780;SDS011;19136;47.032;15.502;2022-12-10T03:51:59;92.15;;;35.22;;
32780;SDS011;19136;47.032;15.502;2022-12-10T03:54:25;127.00;;;42.72;;
32780;SDS011;19136;47.032;15.502;2022-12-10T03:56:50;94.47;;;36.50;;
32780;SDS011;19136;47.032;15.502;2022-12-10T03:59:16;95.45;;;36.20;;
32780;SDS011;19136;47.032;15.502;2022-12-10T04:01:41;97.30;;;37.25;;
32780;SDS011;19136;47.032;15.502;2022-12-10T04:04:07;95.90;;;36.53;;
32780;SDS011;19136;47.032;15.502;2022-12-10T04:06:33;113.40;;;41.65;;
32780;SDS011;19136;47.032;15.502;2022-12-10T04:08:58;121.05;;;40.05;;
32780;SDS011;19136;47.032;15.502;2022-12-10T04:11:24;92.10;;;37.65;;
32780;SDS011;19136;47.032;15.502;2022-12-10T04:13:50;85.05;;;35.83;;
32780;SDS011;19136;47.032;15.502;2022-12-10T04:16:36;100.93;;;38.22;;
32780;SDS011;19136;47.032;15.502;2022-12-10T04:19:09;107.28;;;39.97;;
32780;SDS011;19136;47.032;15.502;2022-12-10T04:21:37;98.55;;;38.25;;
32780;SDS011;19136;47.032;15.502;2022-12-10T04:24:23;95.28;;;37.85;;
32780;SDS011;19136;47.032;15.502;2022-12-10T04:27:09;85.93;;;36.53;;
32780;SDS011;19136;47.032;15.502;2022-12-10T04:29:41;100.60;;;37.65;;
32780;SDS011;19136;47.032;15.502;2022-12-10T04:32:07;85.30;;;36.28;;
32780;SDS011;19136;47.032;15.502;2022-12-10T04:34:33;102.50;;;37.95;;
32780;SDS011;19136;47.032;15.502;2022-12-10T04:36:58;111.85;;;41.47;;
32780;SDS011;19136;47.032;15.502;2022-12-10T04:39:24;99.43;;;37.83;;
32780;SDS011;19136;47.032;15.502;2022-12-10T04:41:50;262.83;;;54.95;;
32780;SDS011;19136;47.032;15.502;2022-12-10T04:44:16;98.88;;;36.97;;
32780;SDS011;19136;47.032;15.502;2022-12-10T04:46:42;106.75;;;39.38;;
32780;SDS011;19136;47.032;15.502;2022-12-10T04:49:08;89.70;;;35.92;;
32780;SDS011;19136;47.032;15.502;2022-12-10T04:51:34;81.45;;;35.25;;
32780;SDS011;19136;47.032;15.502;2022-12-10T04:53:59;88.82;;;36.42;;
32780;SDS011;19136;47.032;15.502;2022-12-10T04:56:25;86.78;;;36.33;;
32780;SDS011;19136;47.032;15.502;2022-12-10T04:58:51;140.32;;;45.58;;
32780;SDS011;19136;47.032;15.502;2022-12-10T05:01:17;167.52;;;48.50;;
32780;SDS011;19136;47.032;15.502;2022-12-10T05:03:46;106.32;;;41.67;;
32780;SDS011;19136;47.032;15.502;2022-12-10T05:06:12;103.47;;;41.22;;
32780;SDS011;19136;47.032;15.502;2022-12-10T05:08:39;106.50;;;39.55;;
32780;SDS011;19136;47.032;15.502;2022-12-10T05:11:12;81.78;;;34.92;;
32780;SDS011;19136;47.032;15.502;2022-12-10T05:13:40;73.55;;;32.63;;
32780;SDS011;19136;47.032;15.502;2022-12-10T05:16:06;85.28;;;34.78;;
32780;SDS011;19136;47.032;15.502;2022-12-10T05:18:33;84.00;;;34.10;;
32780;SDS011;19136;47.032;15.502;2022-12-10T05:20:59;83.20;;;35.22;;
32780;SDS011;19136;47.032;15.502;2022-12-10T05:23:25;82.13;;;33.33;;
32780;SDS011;19136;47.032;15.502;2022-12-10T05:26:13;73.20;;;32.22;;
32780;SDS011;19136;47.032;15.502;2022-12-10T05:28:49;74.05;;;32.65;;
32780;SDS011;19136;47.032;15.502;2022-12-10T05:31:20;74.95;;;32.50;;
32780;SDS011;19136;47.032;15.502;2022-12-10T05:33:50;70.75;;;32.60;;
32780;SDS011;19136;47.032;15.502;2022-12-10T05:36:17;69.97;;;31.15;;
32780;SDS011;19136;47.032;15.502;2022-12-10T05:38:44;73.22;;;33.00;;
32780;SDS011;19136;47.032;15.502;2022-12-10T05:41:17;61.03;;;31.52;;
32780;SDS011;19136;47.032;15.502;2022-12-10T05:43:44;71.75;;;32.95;;
32780;SDS011;19136;47.032;15.502;2022-12-10T05:46:14;64.53;;;31.13;;
32780;SDS011;19136;47.032;15.502;2022-12-10T05:48:44;70.10;;;31.15;;
32780;SDS011;19136;47.032;15.502;2022-12-10T05:51:11;64.78;;;30.02;;
32780;SDS011;19136;47.032;15.502;2022-12-10T05:53:41;62.28;;;28.88;;
32780;SDS011;19136;47.032;15.502;2022-12-10T05:56:17;71.20;;;32.33;;
32780;SDS011;19136;47.032;15.502;2022-12-10T05:58:45;72.93;;;35.78;;
32780;SDS011;19136;47.032;15.502;2022-12-10T06:01:13;70.80;;;32.08;;
32780;SDS011;19136;47.032;15.502;2022-12-10T06:03:40;67.07;;;31.55;;
32780;SDS011;19136;47.032;15.502;2022-12-10T06:06:06;67.57;;;31.30;;
32780;SDS011;19136;47.032;15.502;2022-12-10T06:08:32;65.28;;;31.02;;
32780;SDS011;19136;47.032;15.502;2022-12-10T06:11:01;92.68;;;37.17;;
32780;SDS011;19136;47.032;15.502;2022-12-10T06:13:27;92.53;;;37.15;;
32780;SDS011;19136;47.032;15.502;2022-12-10T06:15:53;84.72;;;33.67;;
32780;SDS011;19136;47.032;15.502;2022-12-10T06:18:18;77.00;;;34.25;;
32780;SDS011;19136;47.032;15.502;2022-12-10T06:20:44;132.38;;;41.92;;
32780;SDS011;19136;47.032;15.502;2022-12-10T06:23:09;77.78;;;34.08;;
32780;SDS011;19136;47.032;15.502;2022-12-10T06:25:37;80.35;;;34.45;;
32780;SDS011;19136;47.032;15.502;2022-12-10T06:28:03;160.90;;;44.25;;
32780;SDS011;19136;47.032;15.502;2022-12-10T06:30:29;84.07;;;34.10;;
32780;SDS011;19136;47.032;15.502;2022-12-10T06:32:54;79.13;;;34.05;;
32780;SDS011;19136;47.032;15.502;2022-12-10T06:35:20;71.97;;;33.17;;
32780;SDS011;19136;47.032;15.502;2022-12-10T06:37:45;84.97;;;34.30;;
32780;SDS011;19136;47.032;15.502;2022-12-10T06:40:11;88.15;;;35.08;;
32780;SDS011;19136;47.032;15.502;2022-12-10T06:42:37;71.18;;;33.40;;
32780;SDS011;19136;47.032;15.502;2022-12-10T06:45:02;70.50;;;32.88;;
32780;SDS011;19136;47.032;15.502;2022-12-10T06:47:28;68.15;;;30.67;;
32780;SDS011;19136;47.032;15.502;2022-12-10T06:49:54;76.65;;;34.97;;
32780;SDS011;19136;47.032;15.502;2022-12-10T06:52:20;70.22;;;31.65;;
32780;SDS011;19136;47.032;15.502;2022-12-10T06:54:45;61.50;;;30.25;;
32780;SDS011;19136;47.032;15.502;2022-12-10T06:57:10;64.15;;;31.60;;
32780;SDS011;19136;47.032;15.502;2022-12-10T06:59:36;63.70;;;30.95;;
32780;SDS011;19136;47.032;15.502;2022-12-10T07:02:02;67.20;;;31.65;;
32780;SDS011;19136;47.032;15.502;2022-12-10T07:04:27;61.65;;;29.95;;
32780;SDS011;19136;47.032;15.502;2022-12-10T07:06:53;61.45;;;29.50;;
32780;SDS011;19136;47.032;15.502;2022-12-10T07:09:18;63.10;;;30.40;;
32780;SDS011;19136;47.032;15.502;2022-12-10T07:11:44;67.88;;;28.92;;
32780;SDS011;19136;47.032;15.502;2022-12-10T07:14:12;65.85;;;28.77;;
32780;SDS011;19136;47.032;15.502;2022-12-10T07:16:40;60.95;;;30.13;;
32780;SDS011;19136;47.032;15.502;2022-12-10T07:19:05;60.75;;;30.08;;
32780;SDS011;19136;47.032;15.502;2022-12-10T07:21:32;55.90;;;28.67;;
32780;SDS011;19136;47.032;15.502;2022-12-10T07:24:06;100.22;;;35.22;;
32780;SDS011;19136;47.032;15.502;2022-12-10T07:26:35;70.35;;;31.70;;
32780;SDS011;19136;47.032;15.502;2022-12-10T07:29:03;58.97;;;28.40;;
32780;SDS011;19136;47.032;15.502;2022-12-10T07:31:29;61.45;;;28.90;;
32780;SDS011;19136;47.032;15.502;2022-12-10T07:33:56;47.47;;;25.38;;
32780;SDS011;19136;47.032;15.502;2022-12-10T07:36:23;44.92;;;23.33;;
32780;SDS011;19136;47.032;15.502;2022-12-10T07:38:49;41.70;;;23.63;;
32780;SDS011;19136;47.032;15.502;2022-12-10T07:41:16;41.22;;;21.80;;
32780;SDS011;19136;47.032;15.502;2022-12-10T07:43:42;41.85;;;22.42;;
32780;SDS011;19136;47.032;15.502;2022-12-10T07:46:10;35.70;;;19.30;;
32780;SDS011;19136;47.032;15.502;2022-12-10T07:48:47;36.85;;;19.85;;
32780;SDS011;19136;47.032;15.502;2022-12-10T07:51:13;45.65;;;20.20;;
32780;SDS011;19136;47.032;15.502;2022-12-10T07:53:41;45.25;;;24.58;;
32780;SDS011;19136;47.032;15.502;2022-12-10T07:56:07;61.85;;;27.73;;
32780;SDS011;19136;47.032;15.502;2022-12-10T07:58:32;51.03;;;21.98;;
32780;SDS011;19136;47.032;15.502;2022-12-10T08:00:58;44.50;;;21.73;;
32780;SDS011;19136;47.032;15.502;2022-12-10T08:03:24;39.83;;;18.25;;
32780;SDS011;19136;47.032;15.502;2022-12-10T08:06:06;39.95;;;17.70;;
32780;SDS011;19136;47.032;15.502;2022-12-10T08:10:59;24.73;;;13.32;;
32780;SDS011;19136;47.032;15.502;2022-12-10T08:13:25;24.02;;;12.98;;
32780;SDS011;19136;47.032;15.502;2022-12-10T08:15:51;32.95;;;15.77;;
32780;SDS011;19136;47.032;15.502;2022-12-10T08:18:17;30.75;;;16.42;;
32780;SDS011;19136;47.032;15.502;2022-12-10T08:20:42;27.17;;;14.38;;
32780;SDS011;19136;47.032;15.502;2022-12-10T08:23:08;31.65;;;14.25;;
32780;SDS011;19136;47.032;15.502;2022-12-10T08:25:33;27.20;;;14.70;;
32780;SDS011;19136;47.032;15.502;2022-12-10T08:28:01;35.88;;;17.88;;
32780;SDS011;19136;47.032;15.502;2022-12-10T08:30:28;32.45;;;17.85;;
32780;SDS011;19136;47.032;15.502;2022-12-10T08:32:53;41.13;;;21.23;;
32780;SDS011;19136;47.032;15.502;2022-12-10T08:35:19;47.08;;;21.50;;
32780;SDS011;19136;47.032;15.502;2022-12-10T08:37:44;40.38;;;19.92;;
32780;SDS011;19136;47.032;15.502;2022-12-10T08:40:10;33.97;;;17.60;;
32780;SDS011;19136;47.032;15.502;2022-12-10T08:42:37;54.58;;;23.88;;
32780;SDS011;19136;47.032;15.502;2022-12-10T08:45:03;35.03;;;18.58;;
32780;SDS011;19136;47.032;15.502;2022-12-10T08:47:29;38.63;;;18.85;;
32780;SDS011;19136;47.032;15.502;2022-12-10T08:49:55;32.95;;;16.98;;
32780;SDS011;19136;47.032;15.502;2022-12-10T08:52:20;35.13;;;17.92;;
32780;SDS011;19136;47.032;15.502;2022-12-10T08:54:46;34.75;;;17.73;;
32780;SDS011;19136;47.032;15.502;2022-12-10T08:57:11;30.98;;;16.35;;
32780;SDS011;19136;47.032;15.502;2022-12-10T08:59:37;38.38;;;19.23;;
32780;SDS011;19136;47.032;15.502;2022-12-10T09:02:02;36.45;;;18.35;;
32780;SDS011;19136;47.032;15.502;2022-12-10T09:04:28;37.10;;;19.13;;
32780;SDS011;19136;47.032;15.502;2022-12-10T09:06:53;38.85;;;19.88;;
32780;SDS011;19136;47.032;15.502;2022-12-10T09:09:19;36.10;;;17.95;;
32780;SDS011;19136;47.032;15.502;2022-12-10T09:11:44;32.30;;;17.20;;
32780;SDS011;19136;47.032;15.502;2022-12-10T09:14:10;31.27;;;17.10;;
32780;SDS011;19136;47.032;15.502;2022-12-10T09:16:36;34.25;;;18.10;;
32780;SDS011;19136;47.032;15.502;2022-12-10T09:19:04;31.95;;;17.35;;
32780;SDS011;19136;47.032;15.502;2022-12-10T09:21:30;28.95;;;15.55;;
32780;SDS011;19136;47.032;15.502;2022-12-10T09:23:56;33.67;;;16.55;;
32780;SDS011;19136;47.032;15.502;2022-12-10T09:26:22;31.45;;;16.90;;
32780;SDS011;19136;47.032;15.502;2022-12-10T09:28:48;27.73;;;15.55;;
32780;SDS011;19136;47.032;15.502;2022-12-10T09:31:15;25.00;;;14.65;;
32780;SDS011;19136;47.032;15.502;2022-12-10T09:33:42;27.15;;;15.30;;
32780;SDS011;19136;47.032;15.502;2022-12-10T09:36:08;28.45;;;14.77;;
32780;SDS011;19136;47.032;15.502;2022-12-10T09:38:39;28.63;;;14.30;;
32780;SDS011;19136;47.032;15.502;2022-12-10T09:51:34;22.48;;;12.77;;
32780;SDS011;19136;47.032;15.502;2022-12-10T09:54:02;21.85;;;12.73;;
32780;SDS011;19136;47.032;15.502;2022-12-10T09:56:32;27.10;;;13.23;;
32780;SDS011;19136;47.032;15.502;2022-12-10T09:59:01;23.17;;;12.50;;
32780;SDS011;19136;47.032;15.502;2022-12-10T10:01:29;22.17;;;11.45;;
32780;SDS011;19136;47.032;15.502;2022-12-10T10:03:56;31.60;;;14.80;;
32780;SDS011;19136;47.032;15.502;2022-12-10T10:06:22;22.67;;;12.25;;
32780;SDS011;19136;47.032;15.502;2022-12-10T10:08:51;21.77;;;12.25;;
32780;SDS011;19136;47.032;15.502;2022-12-10T10:11:20;24.30;;;12.65;;
32780;SDS011;19136;47.032;15.502;2022-12-10T10:16:50;34.40;;;15.75;;
32780;SDS011;19136;47.032;15.502;2022-12-10T10:19:30;24.77;;;12.98;;
32780;SDS011;19136;47.032;15.502;2022-12-10T10:21:58;29.92;;;13.80;;
32780;SDS011;19136;47.032;15.502;2022-12-10T10:24:33;35.13;;;15.48;;
32780;SDS011;19136;47.032;15.502;2022-12-10T10:29:55;29.27;;;15.43;;
32780;SDS011;19136;47.032;15.502;2022-12-10T10:34:56;35.55;;;17.77;;
32780;SDS011;19136;47.032;15.502;2022-12-10T10:37:28;27.13;;;13.75;;
32780;SDS011;19136;47.032;15.502;2022-12-10T10:39:55;21.02;;;12.35;;
32780;SDS011;19136;47.032;15.502;2022-12-10T10:42:34;20.50;;;11.05;;
32780;SDS011;19136;47.032;15.502;2022-12-10T10:45:04;26.88;;;11.85;;
32780;SDS011;19136;47.032;15.502;2022-12-10T10:47:33;17.38;;;9.15;;
32780;SDS011;19136;47.032;15.502;2022-12-10T10:49:59;16.88;;;9.18;;
32780;SDS011;19136;47.032;15.502;2022-12-10T10:52:29;15.93;;;9.52;;
32780;SDS011;19136;47.032;15.502;2022-12-10T10:55:00;15.05;;;8.18;;
32780;SDS011;19136;47.032;15.502;2022-12-10T10:57:32;12.40;;;7.22;;
32780;SDS011;19136;47.032;15.502;2022-12-10T11:00:04;16.45;;;8.88;;
32780;SDS011;19136;47.032;15.502;2022-12-10T11:02:35;18.98;;;9.90;;
32780;SDS011;19136;47.032;15.502;2022-12-10T11:05:06;12.07;;;7.13;;
32780;SDS011;19136;47.032;15.502;2022-12-10T11:07:42;10.20;;;5.88;;
32780;SDS011;19136;47.032;15.502;2022-12-10T11:12:44;12.15;;;6.80;;
32780;SDS011;19136;47.032;15.502;2022-12-10T11:17:47;13.07;;;7.28;;
32780;SDS011;19136;47.032;15.502;2022-12-10T11:22:49;12.35;;;6.75;;
32780;SDS011;19136;47.032;15.502;2022-12-10T11:25:35;12.32;;;7.68;;
32780;SDS011;19136;47.032;15.502;2022-12-10T11:28:12;11.23;;;6.57;;
32780;SDS011;19136;47.032;15.502;2022-12-10T11:30:43;11.68;;;7.70;;
32780;SDS011;19136;47.032;15.502;2022-12-10T11:38:45;11.25;;;7.20;;
32780;SDS011;19136;47.032;15.502;2022-12-10T11:41:29;17.27;;;9.98;;
32780;SDS011;19136;47.032;15.502;2022-12-10T11:44:15;19.92;;;10.90;;
32780;SDS011;19136;47.032;15.502;2022-12-10T11:49:22;12.85;;;7.38;;
32780;SDS011;19136;47.032;15.502;2022-12-10T11:54:38;10.98;;;6.45;;
32780;SDS011;19136;47.032;15.502;2022-12-10T11:57:34;10.27;;;6.80;;
32780;SDS011;19136;47.032;15.502;2022-12-10T12:05:57;17.30;;;7.97;;
32780;SDS011;19136;47.032;15.502;2022-12-10T12:08:50;23.25;;;8.07;;
32780;SDS011;19136;47.032;15.502;2022-12-10T12:14:26;16.65;;;9.23;;
32780;SDS011;19136;47.032;15.502;2022-12-10T12:17:05;17.45;;;9.55;;
32780;SDS011;19136;47.032;15.502;2022-12-10T12:19:45;12.95;;;7.70;;
32780;SDS011;19136;47.032;15.502;2022-12-10T12:22:27;16.63;;;8.35;;
32780;SDS011;19136;47.032;15.502;2022-12-10T12:25:00;19.23;;;8.90;;
32780;SDS011;19136;47.032;15.502;2022-12-10T12:27:33;15.32;;;8.68;;
32780;SDS011;19136;47.032;15.502;2022-12-10T12:32:43;15.48;;;8.98;;
32780;SDS011;19136;47.032;15.502;2022-12-10T12:35:14;18.48;;;9.52;;
32780;SDS011;19136;47.032;15.502;2022-12-10T12:38:26;17.50;;;9.30;;
32780;SDS011;19136;47.032;15.502;2022-12-10T12:40:41;18.05;;;8.98;;
32780;SDS011;19136;47.032;15.502;2022-12-10T12:43:17;19.45;;;9.30;;
32780;SDS011;19136;47.032;15.502;2022-12-10T12:45:46;20.00;;;9.00;;
32780;SDS011;19136;47.032;15.502;2022-12-10T12:50:54;14.95;;;8.20;;
32780;SDS011;19136;47.032;15.502;2022-12-10T12:53:24;17.50;;;8.98;;
32780;SDS011;19136;47.032;15.502;2022-12-10T12:56:03;12.68;;;7.60;;
32780;SDS011;19136;47.032;15.502;2022-12-10T13:03:55;11.98;;;6.88;;
32780;SDS011;19136;47.032;15.502;2022-12-10T13:11:40;11.40;;;6.53;;
32780;SDS011;19136;47.032;15.502;2022-12-10T13:19:32;12.93;;;7.40;;
32780;SDS011;19136;47.032;15.502;2022-12-10T13:29:58;11.35;;;6.15;;
32780;SDS011;19136;47.032;15.502;2022-12-10T13:43:28;13.80;;;8.05;;
32780;SDS011;19136;47.032;15.502;2022-12-10T13:49:02;18.73;;;11.20;;
32780;SDS011;19136;47.032;15.502;2022-12-10T13:57:05;12.90;;;7.32;;
32780;SDS011;19136;47.032;15.502;2022-12-10T14:07:30;15.10;;;7.70;;
32780;SDS011;19136;47.032;15.502;2022-12-10T14:09:57;14.43;;;7.97;;
32780;SDS011;19136;47.032;15.502;2022-12-10T14:12:28;14.15;;;8.27;;
32780;SDS011;19136;47.032;15.502;2022-12-10T14:15:00;29.05;;;16.40;;
32780;SDS011;19136;47.032;15.502;2022-12-10T14:17:35;15.40;;;8.82;;
32780;SDS011;19136;47.032;15.502;2022-12-10T14:20:03;11.80;;;6.65;;
32780;SDS011;19136;47.032;15.502;2022-12-10T14:25:01;14.48;;;6.75;;
32780;SDS011;19136;47.032;15.502;2022-12-10T14:27:30;9.30;;;6.30;;
32780;SDS011;19136;47.032;15.502;2022-12-10T14:30:01;10.85;;;6.80;;
32780;SDS011;19136;47.032;15.502;2022-12-10T14:32:35;8.77;;;5.95;;
32780;SDS011;19136;47.032;15.502;2022-12-10T14:35:04;9.35;;;6.00;;
32780;SDS011;19136;47.032;15.502;2022-12-10T14:37:31;11.48;;;6.60;;
32780;SDS011;19136;47.032;15.502;2022-12-10T14:40:00;10.98;;;7.10;;
32780;SDS011;19136;47.032;15.502;2022-12-10T14:42:26;11.77;;;6.68;;
32780;SDS011;19136;47.032;15.502;2022-12-10T14:45:05;11.02;;;6.20;;
32780;SDS011;19136;47.032;15.502;2022-12-10T14:47:36;11.43;;;6.63;;
32780;SDS011;19136;47.032;15.502;2022-12-10T14:50:03;13.73;;;7.93;;
32780;SDS011;19136;47.032;15.502;2022-12-10T14:52:33;9.82;;;6.28;;
32780;SDS011;19136;47.032;15.502;2022-12-10T14:55:04;11.07;;;6.72;;
32780;SDS011;19136;47.032;15.502;2022-12-10T14:57:31;10.63;;;6.13;;
32780;SDS011;19136;47.032;15.502;2022-12-10T15:00:06;11.48;;;6.32;;
32780;SDS011;19136;47.032;15.502;2022-12-10T15:02:35;16.85;;;7.07;;
32780;SDS011;19136;47.032;15.502;2022-12-10T15:05:03;12.60;;;6.90;;
32780;SDS011;19136;47.032;15.502;2022-12-10T15:07:37;11.10;;;6.63;;
32780;SDS011;19136;47.032;15.502;2022-12-10T15:10:10;11.73;;;6.93;;
32780;SDS011;19136;47.032;15.502;2022-12-10T15:12:46;11.43;;;6.78;;
32780;SDS011;19136;47.032;15.502;2022-12-10T15:15:21;10.43;;;6.80;;
32780;SDS011;19136;47.032;15.502;2022-12-10T15:20:37;13.63;;;7.57;;
32780;SDS011;19136;47.032;15.502;2022-12-10T15:23:08;11.85;;;6.75;;
32780;SDS011;19136;47.032;15.502;2022-12-10T15:26:32;13.13;;;7.18;;
32780;SDS011;19136;47.032;15.502;2022-12-10T15:28:38;20.42;;;9.43;;
32780;SDS011;19136;47.032;15.502;2022-12-10T15:31:12;30.08;;;12.70;;
32780;SDS011;19136;47.032;15.502;2022-12-10T15:33:44;29.65;;;14.38;;
32780;SDS011;19136;47.032;15.502;2022-12-10T15:38:46;19.08;;;9.98;;
32780;SDS011;19136;47.032;15.502;2022-12-10T15:41:23;14.73;;;8.88;;
32780;SDS011;19136;47.032;15.502;2022-12-10T15:43:58;13.95;;;8.25;;
32780;SDS011;19136;47.032;15.502;2022-12-10T15:46:29;36.65;;;19.65;;
32780;SDS011;19136;47.032;15.502;2022-12-10T15:48:55;26.75;;;13.73;;
32780;SDS011;19136;47.032;15.502;2022-12-10T15:51:23;27.70;;;13.75;;
32780;SDS011;19136;47.032;15.502;2022-12-10T15:53:49;22.42;;;12.27;;
32780;SDS011;19136;47.032;15.502;2022-12-10T15:56:16;21.20;;;11.23;;
32780;SDS011;19136;47.032;15.502;2022-12-10T15:58:43;17.63;;;10.13;;
32780;SDS011;19136;47.032;15.502;2022-12-10T16:01:11;16.90;;;9.35;;
32780;SDS011;19136;47.032;15.502;2022-12-10T16:03:41;13.63;;;8.20;;
32780;SDS011;19136;47.032;15.502;2022-12-10T16:06:06;9.25;;;6.53;;
32780;SDS011;19136;47.032;15.502;2022-12-10T16:08:34;11.90;;;7.20;;
32780;SDS011;19136;47.032;15.502;2022-12-10T16:11:02;11.82;;;7.85;;
32780;SDS011;19136;47.032;15.502;2022-12-10T16:13:38;12.40;;;8.27;;
32780;SDS011;19136;47.032;15.502;2022-12-10T16:16:07;15.43;;;8.90;;
32780;SDS011;19136;47.032;15.502;2022-12-10T16:18:35;13.38;;;8.88;;
32780;SDS011;19136;47.032;15.502;2022-12-10T16:21:04;16.70;;;7.45;;
32780;SDS011;19136;47.032;15.502;2022-12-10T16:23:31;17.00;;;9.60;;
32780;SDS011;19136;47.032;15.502;2022-12-10T16:25:57;15.32;;;8.60;;
32780;SDS011;19136;47.032;15.502;2022-12-10T16:28:23;14.23;;;7.95;;
32780;SDS011;19136;47.032;15.502;2022-12-10T16:30:50;15.63;;;8.27;;
32780;SDS011;19136;47.032;15.502;2022-12-10T16:33:21;12.00;;;7.18;;
32780;SDS011;19136;47.032;15.502;2022-12-10T16:35:49;13.02;;;7.65;;